Time;durP1;ratioP1;P1;durP2;ratioP2;P2;SDS_P1;SDS_P2;PMS_P1;PMS_P2;Temp;Humidity;BMP_temperature;BMP_pressure;BME280_temperature;BME280_humidity;BME280_pressure;Samples;Min_cycle;Max_cycle;Signal;HPM_P1;HPM_P2
2023/07/12 00:00:41;;;;;;;;;;;;;;;;;;2045875;29;19910;-72
2023/07/12 00:02:02;;;;;;;;;;;;;;;;;;2045694;29;19911;-73
2023/07/12 00:03:23;;;;;;;;;;;;;;;;;;2040156;29;19928;-73
2023/07/12 00:04:44;;;;;;;;;;;;;;;;;;2036931;29;19914;-73
2023/07/12 00:06:04;;;;;;;;;;;;;;;;;;2043539;29;20374;-73
2023/07/12 00:07:25;;;;;;;;;;;;;;;;;;2034914;29;20255;-73
2023/07/12 00:08:46;;;;;;;;;;;;;;;;;;2033078;29;19955;-73
2023/07/12 00:10:07;;;;;;;;;;;;;;;;;;2038304;29;20295;-73
2023/07/12 00:11:27;;;;;;;;;;;;;;;;;;2035431;29;19911;-73
2023/07/12 00:12:48;;;;;;;;;;;;;;;;;;2041744;29;19911;-80
2023/07/12 00:14:09;;;;;;;;;;;;;;;;;;2034167;29;19907;-79
2023/07/12 00:15:31;;;;;;;;;;;;;;;;;;2044074;29;19921;-80
2023/07/12 00:16:52;;;;;;;;;;;;;;;;;;2041172;29;19917;-79
2023/07/12 00:18:12;;;;;;;;;;;;;;;;;;2042751;28;19933;-79
2023/07/12 00:19:33;;;;;;;;;;;;;;;;;;2037404;29;19923;-79
2023/07/12 00:20:54;;;;;;;;;;;;;;;;;;2039203;29;19911;-80
2023/07/12 00:22:16;;;;;;;;;;;;;;;;;;2033058;29;19908;-80
2023/07/12 00:23:37;;;;;;;;;;;;;;;;;;2032971;29;19907;-79
2023/07/12 00:24:58;;;;;;;;;;;;;;;;;;2036777;29;19918;-80
2023/07/12 00:26:18;;;;;;;;;;;;;;;;;;2041000;29;20429;-79
2023/07/12 00:27:39;;;;;;;;;;;;;;;;;;2041866;29;19906;-80
2023/07/12 00:29:00;;;;;;;;;;;;;;;;;;2047568;29;19910;-80
2023/07/12 00:30:21;;;;;;;;;;;;;;;;;;2037620;29;19967;-78
2023/07/12 00:31:41;;;;;;;;;;;;;;;;;;2040552;28;19926;-78
2023/07/12 00:33:03;;;;;;;;;;;;;;;;;;2035686;29;19919;-79
2023/07/12 00:34:24;;;;;;;;;;;;;;;;;;2032142;29;19919;-79
2023/07/12 00:35:44;;;;;;;;;;;;;;;;;;2038907;29;19906;-79
2023/07/12 00:37:11;;;;;;;;;;;;;;;;;;2043980;29;19911;-79
2023/07/12 00:38:32;;;;;;;;;;;;;;;;;;2043535;29;20286;-79
2023/07/12 00:39:53;;;;;;;;;;;;;;;;;;2038046;28;19915;-79
2023/07/12 00:41:13;;;;;;;;;;;;;;;;;;2039746;29;19919;-80
2023/07/12 00:42:34;;;;;;;;;;;;;;;;;;2048368;28;19910;-79
2023/07/12 00:43:55;;;;;;;;;;;;;;;;;;2042790;29;19907;-79
2023/07/12 00:45:15;;;;;;;;;;;;;;;;;;2039461;29;19911;-80
2023/07/12 00:46:36;;;;;;;;;;;;;;;;;;2039801;29;19921;-80
2023/07/12 00:47:57;;;;;;;;;;;;;;;;;;2045072;28;20449;-79
2023/07/12 00:49:18;;;;;;;;;;;;;;;;;;2045236;28;19906;-78
2023/07/12 00:50:38;;;;;;;;;;;;;;;;;;2038461;29;19911;-79
2023/07/12 00:51:59;;;;;;;;;;;;;;;;;;2038159;29;20449;-79
2023/07/12 00:53:20;;;;;;;;;;;;;;;;;;2039766;29;20294;-78
2023/07/12 00:54:40;;;;;;;;;;;;;;;;;;2039423;28;19918;-79
2023/07/12 00:56:01;;;;;;;;;;;;;;;;;;2036927;28;19915;-79
2023/07/12 00:57:22;;;;;;;;;;;;;;;;;;2038139;29;19995;-79
2023/07/12 00:58:43;;;;;;;;;;;;;;;;;;2035444;29;19914;-79
2023/07/12 01:00:05;;;;;;;;;;;;;;;;;;2044122;29;20342;-79
2023/07/12 01:01:29;;;;;;;;;;;;;;;;;;2038578;28;20264;-79
2023/07/12 01:02:50;;;;;;;;;;;;;;;;;;2048773;29;19961;-79
2023/07/12 01:04:10;;;;;;;;;;;;;;;;;;2037306;29;19927;-79
2023/07/12 01:05:31;;;;;;;;;;;;;;;;;;2044669;29;19910;-79
2023/07/12 01:06:52;;;;;;;;;;;;;;;;;;2033468;29;19961;-79
2023/07/12 01:08:13;;;;;;;;;;;;;;;;;;2033195;29;19911;-79
2023/07/12 01:09:33;;;;;;;;;;;;;;;;;;2041491;29;19925;-79
2023/07/12 01:10:54;;;;;;;;;;;;;;;;;;2046100;28;19917;-79
2023/07/12 01:12:15;;;;;;;;;;;;;;;;;;2049102;28;19942;-79
2023/07/12 01:13:35;;;;;;;;;;;;;;;;;;2048111;29;19917;-79
2023/07/12 01:14:56;;;;;;;;;;;;;;;;;;2040764;29;20303;-78
2023/07/12 01:16:17;;;;;;;;;;;;;;;;;;2038819;29;19970;-79
2023/07/12 01:17:37;;;;;;;;;;;;;;;;;;2037700;29;19911;-79
2023/07/12 01:18:58;;;;;;;;;;;;;;;;;;2035766;29;19910;-78
2023/07/12 01:20:19;;;;;;;;;;;;;;;;;;2038629;29;21293;-79
2023/07/12 01:21:39;;;;;;;;;;;;;;;;;;2035027;29;21341;-79
2023/07/12 01:23:00;;;;;;;;;;;;;;;;;;2038529;29;19911;-79
2023/07/12 01:24:21;;;;;;;;;;;;;;;;;;2035863;29;19914;-79
2023/07/12 01:25:42;;;;;;;;;;;;;;;;;;2039320;29;19918;-79
2023/07/12 01:27:03;;;;;;;;;;;;;;;;;;2039016;29;19911;-79
2023/07/12 01:28:24;;;;;;;;;;;;;;;;;;2045086;28;20349;-79
2023/07/12 01:29:45;;;;;;;;;;;;;;;;;;2036982;28;19915;-79
2023/07/12 01:31:05;;;;;;;;;;;;;;;;;;2038874;29;19966;-79
2023/07/12 01:32:26;;;;;;;;;;;;;;;;;;2041229;29;20302;-79
2023/07/12 01:33:47;;;;;;;;;;;;;;;;;;2036979;29;19966;-79
2023/07/12 01:35:07;;;;;;;;;;;;;;;;;;2039211;29;19926;-80
2023/07/12 01:36:28;;;;;;;;;;;;;;;;;;2039996;29;19915;-78
2023/07/12 01:37:49;;;;;;;;;;;;;;;;;;2041134;29;19911;-79
2023/07/12 01:39:09;;;;;;;;;;;;;;;;;;2041056;28;19910;-79
2023/07/12 01:40:30;;;;;;;;;;;;;;;;;;2038155;29;19978;-78
2023/07/12 01:41:51;;;;;;;;;;;;;;;;;;2039091;29;19914;-78
2023/07/12 01:43:12;;;;;;;;;;;;;;;;;;2045088;29;19918;-80
2023/07/12 01:44:33;;;;;;;;;;;;;;;;;;2046458;28;20713;-78
2023/07/12 01:45:56;;;;;;;;;;;;;;;;;;2042507;28;20442;-78
2023/07/12 01:47:17;;;;;;;;;;;;;;;;;;2040778;29;19914;-78
2023/07/12 01:48:38;;;;;;;;;;;;;;;;;;2036885;29;19918;-79
2023/07/12 01:49:59;;;;;;;;;;;;;;;;;;2036168;29;19973;-78
2023/07/12 01:51:20;;;;;;;;;;;;;;;;;;2039334;29;19911;-78
2023/07/12 01:52:43;;;;;;;;;;;;;;;;;;2042346;29;19910;-79
2023/07/12 01:54:04;;;;;;;;;;;;;;;;;;2038743;29;19919;-78
2023/07/12 01:55:24;;;;;;;;;;;;;;;;;;2043680;29;20457;-78
2023/07/12 01:56:45;;;;;;;;;;;;;;;;;;2036815;29;19911;-78
2023/07/12 01:58:06;;;;;;;;;;;;;;;;;;2038702;29;19910;-78
2023/07/12 01:59:27;;;;;;;;;;;;;;;;;;2038672;29;19926;-78
2023/07/12 02:00:47;;;;;;;;;;;;;;;;;;2039420;29;19966;-78
2023/07/12 02:02:08;;;;;;;;;;;;;;;;;;2041774;29;19911;-78
2023/07/12 02:03:29;;;;;;;;;;;;;;;;;;2042522;29;19925;-72
2023/07/12 02:04:50;;;;;;;;;;;;;;;;;;2041040;29;19911;-72
2023/07/12 02:06:11;;;;;;;;;;;;;;;;;;2041726;29;19915;-72
2023/07/12 02:07:32;;;;;;;;;;;;;;;;;;2036176;29;19911;-73
2023/07/12 02:08:52;;;;;;;;;;;;;;;;;;2047068;29;19910;-78
2023/07/12 02:10:15;;;;;;;;;;;;;;;;;;2044671;29;19943;-78
2023/07/12 02:11:36;;;;;;;;;;;;;;;;;;2048194;28;19922;-78
2023/07/12 02:13:00;;;;;;;;;;;;;;;;;;2045548;29;19911;-78
2023/07/12 02:14:20;;;;;;;;;;;;;;;;;;2043415;29;19910;-78
2023/07/12 02:15:41;;;;;;;;;;;;;;;;;;2039510;29;19966;-78
2023/07/12 02:17:02;;;;;;;;;;;;;;;;;;2042516;29;19940;-79
2023/07/12 02:18:22;;;;;;;;;;;;;;;;;;2042005;29;19946;-78
2023/07/12 02:19:44;;;;;;;;;;;;;;;;;;2042445;29;21301;-78
2023/07/12 02:21:05;;;;;;;;;;;;;;;;;;2046190;28;19914;-78
2023/07/12 02:22:26;;;;;;;;;;;;;;;;;;2043574;29;19910;-78
2023/07/12 02:23:46;;;;;;;;;;;;;;;;;;2042762;29;19918;-73
2023/07/12 02:25:07;;;;;;;;;;;;;;;;;;2040415;29;19911;-73
2023/07/12 02:26:28;;;;;;;;;;;;;;;;;;2043998;28;20275;-79
2023/07/12 02:27:49;;;;;;;;;;;;;;;;;;2043343;29;19907;-78
2023/07/12 02:29:12;;;;;;;;;;;;;;;;;;2043716;29;19914;-79
2023/07/12 02:30:33;;;;;;;;;;;;;;;;;;2042904;29;19954;-73
2023/07/12 02:31:54;;;;;;;;;;;;;;;;;;2041789;29;20270;-72
2023/07/12 02:33:16;;;;;;;;;;;;;;;;;;2043787;29;20278;-73
2023/07/12 02:34:37;;;;;;;;;;;;;;;;;;2046365;29;20283;-73
2023/07/12 02:35:59;;;;;;;;;;;;;;;;;;2042281;28;20018;-73
2023/07/12 02:37:21;;;;;;;;;;;;;;;;;;2039634;29;19950;-72
2023/07/12 02:38:42;;;;;;;;;;;;;;;;;;2041446;29;19915;-74
2023/07/12 02:40:02;;;;;;;;;;;;;;;;;;2037742;29;19919;-74
2023/07/12 02:41:23;;;;;;;;;;;;;;;;;;2039045;29;20379;-74
2023/07/12 02:42:44;;;;;;;;;;;;;;;;;;2038546;29;19966;-74
2023/07/12 02:44:04;;;;;;;;;;;;;;;;;;2040867;29;19910;-73
2023/07/12 02:45:25;;;;;;;;;;;;;;;;;;2038206;29;19995;-73
2023/07/12 02:46:46;;;;;;;;;;;;;;;;;;2040316;29;19918;-74
2023/07/12 02:48:10;;;;;;;;;;;;;;;;;;2046823;28;20358;-74
2023/07/12 02:49:30;;;;;;;;;;;;;;;;;;2040426;28;19919;-73
2023/07/12 02:50:53;;;;;;;;;;;;;;;;;;2040488;29;19951;-73
2023/07/12 02:52:14;;;;;;;;;;;;;;;;;;2041528;29;19895;-73
2023/07/12 02:53:34;;;;;;;;;;;;;;;;;;2042331;29;19918;-73
2023/07/12 02:54:55;;;;;;;;;;;;;;;;;;2036446;28;19947;-73
2023/07/12 02:56:16;;;;;;;;;;;;;;;;;;2039437;29;19958;-74
2023/07/12 02:57:37;;;;;;;;;;;;;;;;;;2038882;29;19942;-73
2023/07/12 02:59:00;;;;;;;;;;;;;;;;;;2042600;29;20066;-74
2023/07/12 03:00:21;;;;;;;;;;;;;;;;;;2039405;29;19970;-74
2023/07/12 03:01:41;;;;;;;;;;;;;;;;;;2039990;29;20114;-74
2023/07/12 03:03:02;;;;;;;;;;;;;;;;;;2039717;29;19982;-74
2023/07/12 03:04:23;;;;;;;;;;;;;;;;;;2043509;28;19918;-73
2023/07/12 03:05:43;;;;;;;;;;;;;;;;;;2039012;28;19958;-73
2023/07/12 03:07:04;;;;;;;;;;;;;;;;;;2039538;29;19966;-73
2023/07/12 03:08:25;;;;;;;;;;;;;;;;;;2041916;29;21172;-74
2023/07/12 03:09:46;;;;;;;;;;;;;;;;;;2040614;29;19974;-73
2023/07/12 03:11:06;;;;;;;;;;;;;;;;;;2041749;29;19926;-74
2023/07/12 03:12:27;;;;;;;;;;;;;;;;;;2038090;29;21023;-74
2023/07/12 03:13:49;;;;;;;;;;;;;;;;;;2040701;29;19919;-74
2023/07/12 03:15:10;;;;;;;;;;;;;;;;;;2040745;29;19919;-74
2023/07/12 03:16:31;;;;;;;;;;;;;;;;;;2037650;29;19935;-73
2023/07/12 03:17:51;;;;;;;;;;;;;;;;;;2039654;29;19915;-74
2023/07/12 03:19:12;;;;;;;;;;;;;;;;;;2039505;29;19919;-73
2023/07/12 03:20:33;;;;;;;;;;;;;;;;;;2039515;29;19923;-74
2023/07/12 03:21:54;;;;;;;;;;;;;;;;;;2036064;29;19911;-74
2023/07/12 03:23:14;;;;;;;;;;;;;;;;;;2038536;29;20404;-74
2023/07/12 03:24:35;;;;;;;;;;;;;;;;;;2039165;29;20173;-74
2023/07/12 03:25:56;;;;;;;;;;;;;;;;;;2041470;29;19938;-73
2023/07/12 03:27:17;;;;;;;;;;;;;;;;;;2045598;28;19915;-73
2023/07/12 03:28:37;;;;;;;;;;;;;;;;;;2041552;29;19924;-74
2023/07/12 03:29:58;;;;;;;;;;;;;;;;;;2035285;29;19967;-74
2023/07/12 03:31:19;;;;;;;;;;;;;;;;;;2035271;29;19923;-74
2023/07/12 03:32:39;;;;;;;;;;;;;;;;;;2038149;29;19911;-73
2023/07/12 03:34:00;;;;;;;;;;;;;;;;;;2040500;29;19915;-73
2023/07/12 03:35:21;;;;;;;;;;;;;;;;;;2038668;29;19910;-74
2023/07/12 03:36:41;;;;;;;;;;;;;;;;;;2037556;29;19926;-74
2023/07/12 03:38:02;;;;;;;;;;;;;;;;;;2038449;29;20329;-73
2023/07/12 03:39:23;;;;;;;;;;;;;;;;;;2038774;29;19911;-74
2023/07/12 03:40:43;;;;;;;;;;;;;;;;;;2035638;29;19970;-74
2023/07/12 03:42:04;;;;;;;;;;;;;;;;;;2039168;29;19966;-74
2023/07/12 03:43:25;;;;;;;;;;;;;;;;;;2039650;29;20366;-74
2023/07/12 03:44:46;;;;;;;;;;;;;;;;;;2036416;29;19919;-74
2023/07/12 03:46:06;;;;;;;;;;;;;;;;;;2035163;29;19914;-74
2023/07/12 03:47:27;;;;;;;;;;;;;;;;;;2039956;29;20284;-74
2023/07/12 03:48:48;;;;;;;;;;;;;;;;;;2046839;29;19993;-74
2023/07/12 03:50:08;;;;;;;;;;;;;;;;;;2039998;29;19910;-75
2023/07/12 03:51:29;;;;;;;;;;;;;;;;;;2037970;29;20418;-74
2023/07/12 03:52:50;;;;;;;;;;;;;;;;;;2038623;29;20553;-74
2023/07/12 03:54:11;;;;;;;;;;;;;;;;;;2036533;29;20204;-74
2023/07/12 03:55:32;;;;;;;;;;;;;;;;;;2044404;28;19910;-75
2023/07/12 03:56:52;;;;;;;;;;;;;;;;;;2043094;29;19914;-74
2023/07/12 03:58:13;;;;;;;;;;;;;;;;;;2036678;29;19911;-73
2023/07/12 03:59:34;;;;;;;;;;;;;;;;;;2038065;29;19907;-73
2023/07/12 04:00:54;;;;;;;;;;;;;;;;;;2040715;28;19930;-73
2023/07/12 04:02:15;;;;;;;;;;;;;;;;;;2037687;29;19911;-73
2023/07/12 04:03:36;;;;;;;;;;;;;;;;;;2043398;29;19926;-73
2023/07/12 04:04:57;;;;;;;;;;;;;;;;;;2038521;28;19911;-73
2023/07/12 04:06:17;;;;;;;;;;;;;;;;;;2034242;29;19950;-73
2023/07/12 04:07:38;;;;;;;;;;;;;;;;;;2037223;29;19911;-73
2023/07/12 04:08:59;;;;;;;;;;;;;;;;;;2038839;29;20013;-73
2023/07/12 04:10:19;;;;;;;;;;;;;;;;;;2037462;29;19923;-73
2023/07/12 04:11:41;;;;;;;;;;;;;;;;;;2041929;28;22722;-73
2023/07/12 04:13:02;;;;;;;;;;;;;;;;;;2040678;29;19977;-73
2023/07/12 04:14:23;;;;;;;;;;;;;;;;;;2039345;29;19926;-73
2023/07/12 04:15:43;;;;;;;;;;;;;;;;;;2039803;29;19915;-73
2023/07/12 04:17:04;;;;;;;;;;;;;;;;;;2039228;29;19966;-73
2023/07/12 04:18:25;;;;;;;;;;;;;;;;;;2038242;29;19914;-73
2023/07/12 04:19:45;;;;;;;;;;;;;;;;;;2038429;29;19919;-73
2023/07/12 04:21:07;;;;;;;;;;;;;;;;;;2038991;28;19982;-72
2023/07/12 04:22:31;;;;;;;;;;;;;;;;;;2037806;29;19910;-73
2023/07/12 04:23:52;;;;;;;;;;;;;;;;;;2042349;29;19914;-73
2023/07/12 04:25:12;;;;;;;;;;;;;;;;;;2039755;29;20359;-73
2023/07/12 04:26:33;;;;;;;;;;;;;;;;;;2047502;28;19915;-74
2023/07/12 04:27:54;;;;;;;;;;;;;;;;;;2041959;29;19923;-73
2023/07/12 04:29:15;;;;;;;;;;;;;;;;;;2039882;29;19994;-73
2023/07/12 04:30:35;;;;;;;;;;;;;;;;;;2038637;29;19977;-73
2023/07/12 04:31:57;;;;;;;;;;;;;;;;;;2037123;29;19914;-73
2023/07/12 04:33:17;;;;;;;;;;;;;;;;;;2035816;29;19911;-73
2023/07/12 04:34:38;;;;;;;;;;;;;;;;;;2038884;28;20351;-73
2023/07/12 04:35:59;;;;;;;;;;;;;;;;;;2035287;29;19915;-73
2023/07/12 04:37:20;;;;;;;;;;;;;;;;;;2036438;29;19939;-73
2023/07/12 04:38:41;;;;;;;;;;;;;;;;;;2034554;29;19966;-73
2023/07/12 04:40:01;;;;;;;;;;;;;;;;;;2037284;28;20398;-72
2023/07/12 04:41:22;;;;;;;;;;;;;;;;;;2032841;29;19922;-72
2023/07/12 04:42:43;;;;;;;;;;;;;;;;;;2045910;29;19962;-72
2023/07/12 04:44:04;;;;;;;;;;;;;;;;;;2040297;29;19911;-74
2023/07/12 04:45:24;;;;;;;;;;;;;;;;;;2036696;29;19911;-73
2023/07/12 04:46:45;;;;;;;;;;;;;;;;;;2037708;29;19912;-73
2023/07/12 04:48:06;;;;;;;;;;;;;;;;;;2047113;28;20378;-73
2023/07/12 04:49:26;;;;;;;;;;;;;;;;;;2040542;29;19910;-73
2023/07/12 04:50:50;;;;;;;;;;;;;;;;;;2037514;29;20360;-73
2023/07/12 04:52:12;;;;;;;;;;;;;;;;;;2040805;28;19915;-73
2023/07/12 04:53:33;;;;;;;;;;;;;;;;;;2037664;29;19973;-72
2023/07/12 04:54:54;;;;;;;;;;;;;;;;;;2038137;29;19933;-73
2023/07/12 04:56:14;;;;;;;;;;;;;;;;;;2038958;29;19918;-73
2023/07/12 04:57:35;;;;;;;;;;;;;;;;;;2039605;29;19919;-73
2023/07/12 04:58:56;;;;;;;;;;;;;;;;;;2037904;29;19962;-73
2023/07/12 05:00:17;;;;;;;;;;;;;;;;;;2038561;29;19923;-73
2023/07/12 05:01:38;;;;;;;;;;;;;;;;;;2033073;29;19990;-73
2023/07/12 05:02:58;;;;;;;;;;;;;;;;;;2037133;29;20309;-72
2023/07/12 05:04:19;;;;;;;;;;;;;;;;;;2047644;28;19974;-73
2023/07/12 05:05:40;;;;;;;;;;;;;;;;;;2042612;28;19917;-73
2023/07/12 05:07:00;;;;;;;;;;;;;;;;;;2047442;29;19911;-73
2023/07/12 05:08:22;;;;;;;;;;;;;;;;;;2045174;29;20284;-71
2023/07/12 05:09:44;;;;;;;;;;;;;;;;;;2042189;29;19918;-73
2023/07/12 05:11:05;;;;;;;;;;;;;;;;;;2044246;29;20015;-73
2023/07/12 05:12:26;;;;;;;;;;;;;;;;;;2042715;29;19935;-73
2023/07/12 05:13:47;;;;;;;;;;;;;;;;;;2044320;28;19919;-79
2023/07/12 05:15:10;;;;;;;;;;;;;;;;;;2035191;29;19914;-79
2023/07/12 05:16:33;;;;;;;;;;;;;;;;;;2039813;29;19910;-79
2023/07/12 05:17:55;;;;;;;;;;;;;;;;;;2043777;29;19911;-78
2023/07/12 05:19:16;;;;;;;;;;;;;;;;;;2042866;29;20330;-79
2023/07/12 05:20:37;;;;;;;;;;;;;;;;;;2034382;28;19922;-79
2023/07/12 05:21:57;;;;;;;;;;;;;;;;;;2038816;28;19915;-80
2023/07/12 05:23:18;;;;;;;;;;;;;;;;;;2042932;29;19926;-79
2023/07/12 05:24:40;;;;;;;;;;;;;;;;;;2040630;29;19918;-79
2023/07/12 05:26:01;;;;;;;;;;;;;;;;;;2037033;29;19969;-74
2023/07/12 05:27:22;;;;;;;;;;;;;;;;;;2035408;29;19910;-74
2023/07/12 05:28:42;;;;;;;;;;;;;;;;;;2037804;29;19915;-74
2023/07/12 05:30:04;;;;;;;;;;;;;;;;;;2042920;28;19918;-74
2023/07/12 05:31:26;;;;;;;;;;;;;;;;;;2040620;28;20005;-74
2023/07/12 05:32:46;;;;;;;;;;;;;;;;;;2034802;29;19914;-74
2023/07/12 05:34:07;;;;;;;;;;;;;;;;;;2044245;28;20390;-76
2023/07/12 05:35:28;;;;;;;;;;;;;;;;;;2041956;28;19910;-75
2023/07/12 05:36:49;;;;;;;;;;;;;;;;;;2047437;28;19910;-74
2023/07/12 05:38:09;;;;;;;;;;;;;;;;;;2044978;29;20363;-74
2023/07/12 05:39:30;;;;;;;;;;;;;;;;;;2041126;28;19914;-74
2023/07/12 05:40:51;;;;;;;;;;;;;;;;;;2038210;29;20390;-78
2023/07/12 05:42:12;;;;;;;;;;;;;;;;;;2040834;29;19911;-78
2023/07/12 05:43:34;;;;;;;;;;;;;;;;;;2042440;29;19922;-72
2023/07/12 05:44:54;;;;;;;;;;;;;;;;;;2038768;29;19914;-72
2023/07/12 05:46:15;;;;;;;;;;;;;;;;;;2042512;28;19958;-71
2023/07/12 05:47:36;;;;;;;;;;;;;;;;;;2045268;28;19910;-72
2023/07/12 05:48:58;;;;;;;;;;;;;;;;;;2041610;29;19911;-71
2023/07/12 05:50:20;;;;;;;;;;;;;;;;;;2040041;29;19911;-71
2023/07/12 05:51:44;;;;;;;;;;;;;;;;;;2039859;29;19965;-72
2023/07/12 05:53:05;;;;;;;;;;;;;;;;;;2041044;29;19918;-72
2023/07/12 05:54:25;;;;;;;;;;;;;;;;;;2038571;29;19923;-72
2023/07/12 05:55:46;;;;;;;;;;;;;;;;;;2042251;28;19915;-71
2023/07/12 05:57:07;;;;;;;;;;;;;;;;;;2038603;29;20366;-72
2023/07/12 05:58:27;;;;;;;;;;;;;;;;;;2039599;29;19914;-71
2023/07/12 05:59:48;;;;;;;;;;;;;;;;;;2046552;28;20366;-73
2023/07/12 06:01:09;;;;;;;;;;;;;;;;;;2042724;28;19923;-72
2023/07/12 06:02:29;;;;;;;;;;;;;;;;;;2038005;29;19911;-72
2023/07/12 06:03:50;;;;;;;;;;;;;;;;;;2039102;29;19926;-72
2023/07/12 06:05:11;;;;;;;;;;;;;;;;;;2042242;29;20359;-72
2023/07/12 06:06:31;;;;;;;;;;;;;;;;;;2041177;29;19914;-72
2023/07/12 06:07:52;;;;;;;;;;;;;;;;;;2040933;29;19919;-72
2023/07/12 06:09:13;;;;;;;;;;;;;;;;;;2034736;29;19919;-72
2023/07/12 06:10:34;;;;;;;;;;;;;;;;;;2046315;28;20064;-74
2023/07/12 06:11:55;;;;;;;;;;;;;;;;;;2038482;29;19946;-74
2023/07/12 06:13:16;;;;;;;;;;;;;;;;;;2034386;29;20366;-74
2023/07/12 06:14:36;;;;;;;;;;;;;;;;;;2037937;29;19910;-74
2023/07/12 06:15:57;;;;;;;;;;;;;;;;;;2048758;28;20421;-75
2023/07/12 06:17:18;;;;;;;;;;;;;;;;;;2039777;29;19958;-73
2023/07/12 06:18:39;;;;;;;;;;;;;;;;;;2043008;29;19920;-73
2023/07/12 06:20:00;;;;;;;;;;;;;;;;;;2046834;28;20433;-74
2023/07/12 06:21:21;;;;;;;;;;;;;;;;;;2039811;29;20278;-73
2023/07/12 06:22:41;;;;;;;;;;;;;;;;;;2047315;29;19981;-74
2023/07/12 06:24:02;;;;;;;;;;;;;;;;;;2038661;29;19926;-72
2023/07/12 06:25:23;;;;;;;;;;;;;;;;;;2038397;29;19915;-74
2023/07/12 06:26:44;;;;;;;;;;;;;;;;;;2038245;29;19915;-74
2023/07/12 06:28:04;;;;;;;;;;;;;;;;;;2037407;29;19915;-74
2023/07/12 06:29:25;;;;;;;;;;;;;;;;;;2039229;29;19921;-73
2023/07/12 06:30:46;;;;;;;;;;;;;;;;;;2037597;29;19911;-73
2023/07/12 06:32:06;;;;;;;;;;;;;;;;;;2040147;28;20009;-74
2023/07/12 06:33:27;;;;;;;;;;;;;;;;;;2035878;29;19934;-73
2023/07/12 06:34:48;;;;;;;;;;;;;;;;;;2034879;29;19915;-74
2023/07/12 06:36:09;;;;;;;;;;;;;;;;;;2044414;28;20281;-75
2023/07/12 06:37:29;;;;;;;;;;;;;;;;;;2042021;28;19919;-74
2023/07/12 06:38:50;;;;;;;;;;;;;;;;;;2043280;29;19966;-74
2023/07/12 06:40:11;;;;;;;;;;;;;;;;;;2040952;29;19911;-74
2023/07/12 06:41:32;;;;;;;;;;;;;;;;;;2034809;29;20173;-74
2023/07/12 06:42:52;;;;;;;;;;;;;;;;;;2040566;29;19910;-73
2023/07/12 06:44:13;;;;;;;;;;;;;;;;;;2040313;29;19911;-74
2023/07/12 06:45:35;;;;;;;;;;;;;;;;;;2039311;29;19915;-74
2023/07/12 06:46:56;;;;;;;;;;;;;;;;;;2041640;28;20378;-73
2023/07/12 06:48:16;;;;;;;;;;;;;;;;;;2045669;29;19902;-74
2023/07/12 06:49:37;;;;;;;;;;;;;;;;;;2038552;29;19962;-74
2023/07/12 06:50:58;;;;;;;;;;;;;;;;;;2040073;29;19917;-74
2023/07/12 06:52:18;;;;;;;;;;;;;;;;;;2033836;29;19919;-74
2023/07/12 06:53:39;;;;;;;;;;;;;;;;;;2034076;29;19907;-73
2023/07/12 06:55:00;;;;;;;;;;;;;;;;;;2042174;29;19925;-73
2023/07/12 06:56:21;;;;;;;;;;;;;;;;;;2041753;29;19907;-73
2023/07/12 06:57:42;;;;;;;;;;;;;;;;;;2035331;29;20405;-73
2023/07/12 06:59:02;;;;;;;;;;;;;;;;;;2037542;29;19911;-73
2023/07/12 07:00:23;;;;;;;;;;;;;;;;;;2041543;29;19914;-73
2023/07/12 07:01:44;;;;;;;;;;;;;;;;;;2037197;29;20370;-73
2023/07/12 07:03:04;;;;;;;;;;;;;;;;;;2046434;29;19918;-73
2023/07/12 07:04:25;;;;;;;;;;;;;;;;;;2040815;29;20262;-73
2023/07/12 07:05:46;;;;;;;;;;;;;;;;;;2034871;29;19895;-74
2023/07/12 07:07:07;;;;;;;;;;;;;;;;;;2034473;29;19907;-73
2023/07/12 07:08:28;;;;;;;;;;;;;;;;;;2041407;29;20466;-73
2023/07/12 07:09:48;;;;;;;;;;;;;;;;;;2041191;28;20388;-72
2023/07/12 07:11:09;;;;;;;;;;;;;;;;;;2047199;29;19925;-73
2023/07/12 07:12:30;;;;;;;;;;;;;;;;;;2041834;29;20338;-73
2023/07/12 07:13:51;;;;;;;;;;;;;;;;;;2036388;29;19919;-74
2023/07/12 07:15:11;;;;;;;;;;;;;;;;;;2034532;29;20350;-73
2023/07/12 07:16:32;;;;;;;;;;;;;;;;;;2036824;29;19915;-73
2023/07/12 07:17:56;;;;;;;;;;;;;;;;;;2038473;29;19907;-72
2023/07/12 07:19:18;;;;;;;;;;;;;;;;;;2035399;29;20248;-73
2023/07/12 07:20:42;;;;;;;;;;;;;;;;;;2037442;29;19937;-73
2023/07/12 07:22:02;;;;;;;;;;;;;;;;;;2039590;29;19906;-73
2023/07/12 07:23:23;;;;;;;;;;;;;;;;;;2039416;29;19918;-73
2023/07/12 07:24:44;;;;;;;;;;;;;;;;;;2041894;29;19914;-74
2023/07/12 07:26:05;;;;;;;;;;;;;;;;;;2044865;28;20358;-73
2023/07/12 07:27:25;;;;;;;;;;;;;;;;;;2042770;29;20285;-73
2023/07/12 07:28:48;;;;;;;;;;;;;;;;;;2039204;29;19956;-73
2023/07/12 07:30:09;;;;;;;;;;;;;;;;;;2036353;29;19907;-73
2023/07/12 07:31:29;;;;;;;;;;;;;;;;;;2035195;29;19934;-74
2023/07/12 07:32:53;;;;;;;;;;;;;;;;;;2034198;29;19911;-73
2023/07/12 07:34:14;;;;;;;;;;;;;;;;;;2033574;29;19918;-74
2023/07/12 07:35:36;;;;;;;;;;;;;;;;;;2040900;29;19906;-74
2023/07/12 07:36:57;;;;;;;;;;;;;;;;;;2034756;29;19906;-74
2023/07/12 07:38:18;;;;;;;;;;;;;;;;;;2030315;29;19911;-73
2023/07/12 07:39:38;;;;;;;;;;;;;;;;;;2035266;29;19917;-74
2023/07/12 07:41:00;;;;;;;;;;;;;;;;;;2044174;29;19910;-74
2023/07/12 07:42:21;;;;;;;;;;;;;;;;;;2039088;29;20286;-74
2023/07/12 07:43:44;;;;;;;;;;;;;;;;;;2040285;29;19906;-74
2023/07/12 07:45:05;;;;;;;;;;;;;;;;;;2040317;29;19917;-73
2023/07/12 07:46:25;;;;;;;;;;;;;;;;;;2038021;29;19907;-74
2023/07/12 07:47:46;;;;;;;;;;;;;;;;;;2045008;29;20294;-73
2023/07/12 07:49:08;;;;;;;;;;;;;;;;;;2051996;28;19946;-74
2023/07/12 07:50:29;;;;;;;;;;;;;;;;;;2048939;28;19906;-74
2023/07/12 07:51:49;;;;;;;;;;;;;;;;;;2042127;29;19915;-74
2023/07/12 07:53:11;;;;;;;;;;;;;;;;;;2035844;29;19907;-74
2023/07/12 07:54:32;;;;;;;;;;;;;;;;;;2033083;29;19910;-73
2023/07/12 07:55:53;;;;;;;;;;;;;;;;;;2042633;29;19913;-73
2023/07/12 07:57:14;;;;;;;;;;;;;;;;;;2039150;29;19910;-73
2023/07/12 07:58:34;;;;;;;;;;;;;;;;;;2049781;29;19913;-74
2023/07/12 07:59:56;;;;;;;;;;;;;;;;;;2045765;28;20267;-74
2023/07/12 08:01:16;;;;;;;;;;;;;;;;;;2035821;29;19907;-74
2023/07/12 08:02:37;;;;;;;;;;;;;;;;;;2031997;29;19922;-74
2023/07/12 08:03:58;;;;;;;;;;;;;;;;;;2034633;29;19966;-74
2023/07/12 08:05:19;;;;;;;;;;;;;;;;;;2040795;28;19934;-74
2023/07/12 08:06:40;;;;;;;;;;;;;;;;;;2040087;28;20000;-73
2023/07/12 08:08:00;;;;;;;;;;;;;;;;;;2036445;29;19910;-73
2023/07/12 08:09:21;;;;;;;;;;;;;;;;;;2047281;29;19922;-74
2023/07/12 08:10:42;;;;;;;;;;;;;;;;;;2043289;28;20010;-74
2023/07/12 08:12:02;;;;;;;;;;;;;;;;;;2047085;29;19921;-72
2023/07/12 08:13:23;;;;;;;;;;;;;;;;;;2042885;29;20142;-74
2023/07/12 08:14:45;;;;;;;;;;;;;;;;;;2033689;29;19966;-73
2023/07/12 08:16:07;;;;;;;;;;;;;;;;;;2050079;28;20023;-73
2023/07/12 08:17:28;;;;;;;;;;;;;;;;;;2032984;29;19911;-73
2023/07/12 08:18:49;;;;;;;;;;;;;;;;;;2033865;29;20290;-73
2023/07/12 08:20:10;;;;;;;;;;;;;;;;;;2037529;29;19907;-74
2023/07/12 08:21:31;;;;;;;;;;;;;;;;;;2037476;29;19907;-75
2023/07/12 08:22:52;;;;;;;;;;;;;;;;;;2040400;29;20289;-73
2023/07/12 08:24:12;;;;;;;;;;;;;;;;;;2034032;29;19914;-74
2023/07/12 08:25:33;;;;;;;;;;;;;;;;;;2041627;29;19910;-74
2023/07/12 08:26:54;;;;;;;;;;;;;;;;;;2040091;29;19942;-74
2023/07/12 08:28:15;;;;;;;;;;;;;;;;;;2032866;29;20382;-74
2023/07/12 08:29:35;;;;;;;;;;;;;;;;;;2034412;29;19914;-74
2023/07/12 08:30:56;;;;;;;;;;;;;;;;;;2039340;29;19918;-74
2023/07/12 08:32:18;;;;;;;;;;;;;;;;;;2033646;29;20264;-74
2023/07/12 08:33:41;;;;;;;;;;;;;;;;;;2031340;29;19911;-73
2023/07/12 08:35:03;;;;;;;;;;;;;;;;;;2032023;28;19911;-74
2023/07/12 08:36:24;;;;;;;;;;;;;;;;;;2035075;28;19911;-73
2023/07/12 08:37:44;;;;;;;;;;;;;;;;;;2036777;29;19907;-73
2023/07/12 08:39:05;;;;;;;;;;;;;;;;;;2039866;29;19910;-73
2023/07/12 08:40:26;;;;;;;;;;;;;;;;;;2040936;29;19907;-74
2023/07/12 08:41:47;;;;;;;;;;;;;;;;;;2041546;29;20337;-74
2023/07/12 08:43:07;;;;;;;;;;;;;;;;;;2038905;29;20426;-73
2023/07/12 08:44:28;;;;;;;;;;;;;;;;;;2040629;28;20285;-73
2023/07/12 08:45:49;;;;;;;;;;;;;;;;;;2047913;29;19906;-73
2023/07/12 08:47:09;;;;;;;;;;;;;;;;;;2037465;29;19907;-73
2023/07/12 08:48:30;;;;;;;;;;;;;;;;;;2043533;28;19942;-75
2023/07/12 08:49:51;;;;;;;;;;;;;;;;;;2045780;29;19935;-75
2023/07/12 08:51:11;;;;;;;;;;;;;;;;;;2049586;28;19906;-74
2023/07/12 08:52:32;;;;;;;;;;;;;;;;;;2043822;29;19938;-75
2023/07/12 08:53:53;;;;;;;;;;;;;;;;;;2048172;29;19906;-74
2023/07/12 08:55:14;;;;;;;;;;;;;;;;;;2039575;29;19919;-75
2023/07/12 08:56:34;;;;;;;;;;;;;;;;;;2048404;28;19921;-73
2023/07/12 08:57:55;;;;;;;;;;;;;;;;;;2040945;28;19918;-73
2023/07/12 08:59:16;;;;;;;;;;;;;;;;;;2035627;29;19907;-74
2023/07/12 09:00:36;;;;;;;;;;;;;;;;;;2044329;29;19910;-74
2023/07/12 09:01:59;;;;;;;;;;;;;;;;;;2038633;29;19917;-74
2023/07/12 09:03:20;;;;;;;;;;;;;;;;;;2038794;29;20380;-74
2023/07/12 09:04:40;;;;;;;;;;;;;;;;;;2043128;29;19906;-74
2023/07/12 09:06:04;;;;;;;;;;;;;;;;;;2050420;28;19966;-74
2023/07/12 09:07:25;;;;;;;;;;;;;;;;;;2035341;29;19918;-74
2023/07/12 09:08:47;;;;;;;;;;;;;;;;;;2034741;29;19907;-75
2023/07/12 09:10:07;;;;;;;;;;;;;;;;;;2038337;29;20294;-74
2023/07/12 09:11:28;;;;;;;;;;;;;;;;;;2038962;29;19985;-73
2023/07/12 09:12:49;;;;;;;;;;;;;;;;;;2040966;29;19918;-74